createdAt,value
2019-01-11T00:00:55.161Z,99268.00
2019-01-11T00:03:24.736Z,99261.00
2019-01-11T00:05:54.251Z,99255.00
2019-01-11T00:08:23.846Z,99262.00
2019-01-11T00:10:53.470Z,99254.00
2019-01-11T00:13:22.928Z,99268.00
2019-01-11T00:15:52.572Z,99274.00
2019-01-11T00:18:22.085Z,99260.00
2019-01-11T00:20:51.671Z,99260.00
2019-01-11T00:23:21.152Z,99256.00
2019-01-11T00:25:50.716Z,99254.00
2019-01-11T00:28:20.330Z,99251.00
2019-01-11T00:30:50.026Z,99260.00
2019-01-11T00:33:19.629Z,99253.00
2019-01-11T00:35:49.448Z,99246.00
2019-01-11T00:38:18.997Z,99242.00
2019-01-11T00:40:48.606Z,99257.00
2019-01-11T00:43:18.154Z,99250.00
2019-01-11T00:45:47.675Z,99246.00
2019-01-11T00:48:17.279Z,99249.00
2019-01-11T00:50:46.885Z,99247.00
2019-01-11T00:53:16.487Z,99250.00
2019-01-11T00:55:46.522Z,99241.00
2019-01-11T00:58:16.026Z,99246.00
2019-01-11T01:00:45.505Z,99233.00
2019-01-11T01:03:15.137Z,99247.00
2019-01-11T01:05:44.769Z,99240.00
2019-01-11T01:08:14.349Z,99240.00
2019-01-11T01:10:44.058Z,99243.00
2019-01-11T01:13:13.678Z,99237.00
2019-01-11T01:15:43.409Z,99236.00
2019-01-11T01:18:12.900Z,99240.00
2019-01-11T01:20:42.502Z,99243.00
2019-01-11T01:23:12.103Z,99256.00
2019-01-11T01:25:41.777Z,99243.00
2019-01-11T01:28:11.322Z,99243.00
2019-01-11T01:30:40.907Z,99253.00
2019-01-11T01:33:11.096Z,99254.00
2019-01-11T01:35:40.817Z,99251.00
2019-01-11T01:38:10.437Z,99251.00
2019-01-11T01:40:39.974Z,99254.00
2019-01-11T01:43:09.485Z,99254.00
2019-01-11T01:45:38.945Z,99247.00
2019-01-11T01:48:08.705Z,99259.00
2019-01-11T01:50:38.410Z,99250.00
2019-01-11T01:53:09.090Z,99247.00
2019-01-11T01:55:38.780Z,99244.00
2019-01-11T01:58:08.435Z,99248.00
2019-01-11T02:00:37.950Z,99252.00
2019-01-11T02:03:07.472Z,99247.00
2019-01-11T02:05:37.169Z,99250.00
2019-01-11T02:08:07.008Z,99251.00
2019-01-11T02:10:36.596Z,99247.00
2019-01-11T02:13:06.235Z,99252.00
2019-01-11T02:15:35.838Z,99250.00
2019-01-11T02:18:05.472Z,99250.00
2019-01-11T02:20:35.044Z,99239.00
2019-01-11T02:23:04.520Z,99243.00
2019-01-11T02:25:34.157Z,99238.00
2019-01-11T02:28:03.760Z,99237.00
2019-01-11T02:30:33.264Z,99235.00
2019-01-11T02:33:02.995Z,99226.00
2019-01-11T02:35:32.710Z,99237.00
2019-01-11T02:38:02.298Z,99223.00
2019-01-11T02:40:32.237Z,99222.00
2019-01-11T02:43:01.831Z,99218.00
2019-01-11T02:45:31.436Z,99224.00
2019-01-11T02:48:01.153Z,99217.00
2019-01-11T02:50:30.654Z,99229.00
2019-01-11T02:53:00.369Z,99226.00
2019-01-11T02:55:29.838Z,99226.00
2019-01-11T02:57:59.473Z,99222.00
2019-01-11T03:00:31.836Z,99214.00
2019-01-11T03:03:01.556Z,99213.00
2019-01-11T03:05:31.018Z,99224.00
2019-01-11T03:08:00.787Z,99212.00
2019-01-11T03:10:30.459Z,99224.00
2019-01-11T03:13:36.794Z,99212.00
2019-01-11T03:16:06.387Z,99214.00
2019-01-11T03:18:35.978Z,99211.00
2019-01-11T03:21:06.093Z,99207.00
2019-01-11T03:23:38.454Z,99206.00
2019-01-11T03:26:08.068Z,99206.00
2019-01-11T03:28:40.066Z,99213.00
2019-01-11T03:31:19.668Z,99209.00
2019-01-11T03:33:49.089Z,99205.00
2019-01-11T03:36:18.488Z,99203.00
2019-01-11T03:38:47.989Z,99199.00
2019-01-11T03:41:17.568Z,99203.00
2019-01-11T03:43:47.520Z,99203.00
2019-01-11T03:46:17.136Z,99202.00
2019-01-11T03:48:46.617Z,99208.00
2019-01-11T03:51:16.247Z,99209.00
2019-01-11T03:53:45.999Z,99206.00
2019-01-11T03:56:15.649Z,99194.00
2019-01-11T03:58:45.296Z,99204.00
2019-01-11T04:01:14.764Z,99208.00
2019-01-11T04:03:44.495Z,99191.00
2019-01-11T04:06:14.051Z,99199.00
2019-01-11T04:08:43.594Z,99202.00
2019-01-11T04:11:13.202Z,99204.00
2019-01-11T04:13:42.935Z,99202.00
2019-01-11T04:16:12.525Z,99205.00
2019-01-11T04:18:58.010Z,99197.00
2019-01-11T04:21:27.746Z,99204.00
2019-01-11T04:23:57.608Z,99201.00
2019-01-11T04:26:27.349Z,99204.00
2019-01-11T04:28:57.065Z,99201.00
2019-01-11T04:31:26.784Z,99206.00
2019-01-11T04:33:56.377Z,99195.00
2019-01-11T04:36:26.046Z,99204.00
2019-01-11T04:38:55.697Z,99203.00
2019-01-11T04:41:25.426Z,99202.00
2019-01-11T04:43:55.239Z,99201.00
2019-01-11T04:46:24.827Z,99197.00
2019-01-11T04:48:54.562Z,99195.00
2019-01-11T04:51:24.247Z,99204.00
2019-01-11T04:53:54.100Z,99200.00
2019-01-11T04:56:23.786Z,99199.00
2019-01-11T04:58:53.574Z,99210.00
2019-01-11T05:01:23.206Z,99210.00
2019-01-11T05:03:53.018Z,99208.00
2019-01-11T05:06:22.643Z,99201.00
2019-01-11T05:08:52.339Z,99210.00
2019-01-11T05:11:21.937Z,99207.00
2019-01-11T05:13:55.014Z,99199.00
2019-01-11T05:16:24.636Z,99200.00
2019-01-11T05:18:54.358Z,99207.00
2019-01-11T05:21:24.104Z,99206.00
2019-01-11T05:23:53.671Z,99205.00
2019-01-11T05:26:23.372Z,99207.00
2019-01-11T05:28:53.055Z,99204.00
2019-01-11T05:31:22.943Z,99203.00
2019-01-11T05:33:52.317Z,99199.00
2019-01-11T05:36:22.449Z,99204.00
2019-01-11T05:38:51.917Z,99199.00
2019-01-11T05:41:21.421Z,99192.00
2019-01-11T05:43:51.453Z,99196.00
2019-01-11T05:46:21.167Z,99194.00
2019-01-11T05:48:51.098Z,99195.00
2019-01-11T05:51:21.751Z,99196.00
2019-01-11T05:53:51.390Z,99184.00
2019-01-11T05:56:21.631Z,99186.00
2019-01-11T05:58:54.557Z,99195.00
2019-01-11T06:01:24.248Z,99183.00
2019-01-11T06:03:54.185Z,99181.00
2019-01-11T06:08:43.562Z,99181.00
2019-01-11T06:11:13.227Z,99180.00
2019-01-11T06:13:42.862Z,99176.00
2019-01-11T06:16:12.892Z,99178.00
2019-01-11T06:18:42.398Z,99181.00
2019-01-11T06:21:12.103Z,99182.00
2019-01-11T06:23:41.631Z,99181.00
2019-01-11T06:26:11.522Z,99173.00
2019-01-11T06:28:41.232Z,99178.00
2019-01-11T06:31:10.924Z,99175.00
2019-01-11T06:33:40.544Z,99170.00
2019-01-11T06:36:10.314Z,99168.00
2019-01-11T06:38:39.995Z,99162.00
2019-01-11T06:41:09.656Z,99175.00
2019-01-11T06:43:40.179Z,99158.00
2019-01-11T06:46:09.972Z,99164.00
2019-01-11T06:48:41.262Z,99159.00
2019-01-11T06:51:11.175Z,99170.00
2019-01-11T06:53:40.633Z,99170.00
2019-01-11T06:56:10.299Z,99155.00
2019-01-11T06:58:39.924Z,99150.00
2019-01-11T07:01:09.463Z,99149.00
2019-01-11T07:03:39.238Z,99160.00
2019-01-11T07:06:08.948Z,99159.00
2019-01-11T07:08:38.968Z,99159.00
2019-01-11T07:11:09.082Z,99170.00
2019-01-11T07:13:38.801Z,99160.00
2019-01-11T07:16:08.510Z,99161.00
2019-01-11T07:18:38.730Z,99166.00
2019-01-11T07:21:08.281Z,99159.00
2019-01-11T07:23:37.874Z,99153.00
2019-01-11T07:26:07.579Z,99149.00
2019-01-11T07:28:37.574Z,99151.00
2019-01-11T07:31:15.172Z,99166.00
2019-01-11T07:33:44.775Z,99165.00
2019-01-11T07:36:25.048Z,99155.00
2019-01-11T07:38:54.770Z,99159.00
2019-01-11T07:41:24.424Z,99155.00
2019-01-11T07:43:54.076Z,99156.00
2019-01-11T07:46:23.682Z,99155.00
2019-01-11T07:48:53.407Z,99163.00
2019-01-11T07:51:22.987Z,99155.00
2019-01-11T07:53:52.816Z,99156.00
2019-01-11T07:56:22.400Z,99152.00
2019-01-11T07:58:52.175Z,99148.00
2019-01-11T08:01:24.416Z,99154.00
2019-01-11T08:03:54.033Z,99149.00
2019-01-11T08:06:23.560Z,99161.00
2019-01-11T08:08:53.826Z,99151.00
2019-01-11T08:11:23.659Z,99146.00
2019-01-11T08:13:53.070Z,99149.00
2019-01-11T08:16:22.702Z,99147.00
2019-01-11T08:18:52.389Z,99147.00
2019-01-11T08:21:21.957Z,99146.00
2019-01-11T08:23:51.571Z,99149.00
2019-01-11T08:26:24.025Z,99143.00
2019-01-11T08:28:53.681Z,99131.00
2019-01-11T08:31:23.239Z,99147.00
2019-01-11T08:33:53.781Z,99147.00
2019-01-11T08:36:23.312Z,99152.00
2019-01-11T08:38:52.842Z,99145.00
2019-01-11T08:41:23.254Z,99141.00
2019-01-11T08:43:52.880Z,99134.00
2019-01-11T08:46:22.566Z,99136.00
2019-01-11T08:48:52.442Z,99138.00
2019-01-11T08:51:22.110Z,99135.00
2019-01-11T08:53:51.684Z,99149.00
2019-01-11T08:56:21.416Z,99139.00
2019-01-11T08:58:51.026Z,99135.00
2019-01-11T09:01:20.619Z,99128.00
2019-01-11T09:03:50.126Z,99132.00
2019-01-11T09:06:20.516Z,99130.00
2019-01-11T09:08:50.158Z,99139.00
2019-01-11T09:11:20.032Z,99145.00
2019-01-11T09:13:49.719Z,99135.00
2019-01-11T09:16:20.806Z,99134.00
2019-01-11T09:19:02.141Z,99133.00
2019-01-11T09:21:32.146Z,99127.00
2019-01-11T09:24:01.842Z,99121.00
2019-01-11T09:26:31.477Z,99127.00
2019-01-11T09:29:02.051Z,99131.00
2019-01-11T09:31:31.512Z,99121.00
2019-01-11T09:34:01.106Z,99121.00
2019-01-11T09:36:30.837Z,99134.00
2019-01-11T09:39:00.665Z,99132.00
2019-01-11T09:41:30.227Z,99128.00
2019-01-11T09:43:59.754Z,99131.00
2019-01-11T09:46:29.267Z,99118.00
2019-01-11T09:48:59.223Z,99135.00
2019-01-11T09:51:28.768Z,99129.00
2019-01-11T09:53:58.267Z,99125.00
2019-01-11T09:56:27.759Z,99132.00
2019-01-11T09:58:57.545Z,99120.00
2019-01-11T10:01:27.292Z,99122.00
2019-01-11T10:03:56.877Z,99123.00
2019-01-11T10:06:26.507Z,99115.00
2019-01-11T10:08:56.359Z,99114.00
2019-01-11T10:11:26.027Z,99113.00
2019-01-11T10:13:55.656Z,99114.00
2019-01-11T10:16:25.253Z,99107.00
2019-01-11T10:18:54.933Z,99109.00
2019-01-11T10:21:24.472Z,99108.00
2019-01-11T10:23:54.190Z,99107.00
2019-01-11T10:26:23.775Z,99119.00
2019-01-11T10:28:53.419Z,99109.00
2019-01-11T10:31:22.903Z,99114.00
2019-01-11T10:33:52.508Z,99112.00
2019-01-11T10:36:22.220Z,99102.00
2019-01-11T10:38:51.851Z,99107.00
2019-01-11T10:41:22.389Z,99097.00
2019-01-11T10:43:51.970Z,99102.00
2019-01-11T10:46:35.292Z,99091.00
2019-01-11T10:49:04.974Z,99086.00
2019-01-11T10:51:34.831Z,99088.00
2019-01-11T10:54:04.436Z,99085.00
2019-01-11T10:56:34.140Z,99086.00
2019-01-11T10:59:03.973Z,99091.00
2019-01-11T11:01:33.461Z,99086.00
2019-01-11T11:04:03.249Z,99078.00
2019-01-11T11:06:32.883Z,99081.00
2019-01-11T11:09:02.601Z,99079.00
2019-01-11T11:11:32.413Z,99086.00
2019-01-11T11:14:01.938Z,99076.00
2019-01-11T11:16:32.940Z,99068.00
2019-01-11T11:19:03.111Z,99065.00
2019-01-11T11:21:34.857Z,99057.00
2019-01-11T11:24:04.136Z,99056.00
2019-01-11T11:26:33.777Z,99055.00
2019-01-11T11:29:03.588Z,99052.00
2019-01-11T11:31:33.266Z,99049.00
2019-01-11T11:34:02.865Z,99047.00
2019-01-11T11:36:32.510Z,99048.00
2019-01-11T11:39:02.098Z,99037.00
2019-01-11T11:41:31.627Z,99036.00
2019-01-11T11:44:01.206Z,99038.00
2019-01-11T11:46:30.814Z,99024.00
2019-01-11T11:49:00.462Z,99019.00
2019-01-11T11:51:29.934Z,99026.00
2019-01-11T11:53:59.464Z,99020.00
2019-01-11T11:56:29.043Z,99009.00
2019-01-11T11:58:58.756Z,99014.00
2019-01-11T12:01:28.550Z,99016.00
2019-01-11T12:03:58.187Z,99016.00
2019-01-11T12:06:27.993Z,99017.00
2019-01-11T12:08:57.562Z,99007.00
2019-01-11T12:11:27.421Z,98996.00
2019-01-11T12:13:57.019Z,98994.00
2019-01-11T12:16:26.610Z,98996.00
2019-01-11T12:18:56.343Z,98993.00
2019-01-11T12:21:25.924Z,98999.00
2019-01-11T12:23:55.467Z,98993.00
2019-01-11T12:26:25.385Z,98975.00
2019-01-11T12:28:54.954Z,98983.00
2019-01-11T12:31:24.904Z,98979.00
2019-01-11T12:33:54.463Z,98990.00
2019-01-11T12:36:24.104Z,98997.00
2019-01-11T12:38:53.823Z,98986.00
2019-01-11T12:41:23.666Z,98977.00
2019-01-11T12:43:53.254Z,98978.00
2019-01-11T12:46:22.982Z,98968.00
2019-01-11T12:48:52.551Z,98986.00
2019-01-11T12:51:22.221Z,98973.00
2019-01-11T12:53:51.785Z,98973.00
2019-01-11T12:56:21.508Z,98967.00
2019-01-11T12:58:51.945Z,98964.00
2019-01-11T13:01:21.832Z,98972.00
2019-01-11T13:03:51.440Z,98962.00
2019-01-11T13:06:21.254Z,98960.00
2019-01-11T13:08:52.763Z,98951.00
2019-01-11T13:11:22.636Z,98957.00
2019-01-11T13:13:52.230Z,98962.00
2019-01-11T13:16:21.828Z,98939.00
2019-01-11T13:18:51.455Z,98949.00
2019-01-11T13:21:21.281Z,98936.00
2019-01-11T13:23:50.997Z,98928.00
2019-01-11T13:26:20.575Z,98928.00
2019-01-11T13:28:50.111Z,98924.00
2019-01-11T13:31:19.926Z,98914.00
2019-01-11T13:34:06.784Z,98912.00
2019-01-11T13:36:42.024Z,98911.00
2019-01-11T13:39:13.908Z,98927.00
2019-01-11T13:41:43.582Z,98915.00
2019-01-11T13:44:13.253Z,98909.00
2019-01-11T13:46:43.197Z,98910.00
2019-01-11T13:49:12.887Z,98916.00
2019-01-11T13:51:42.392Z,98911.00
2019-01-11T13:54:11.930Z,98913.00
2019-01-11T13:56:41.954Z,98910.00
2019-01-11T13:59:11.916Z,98911.00
2019-01-11T14:01:41.682Z,98914.00
2019-01-11T14:04:11.350Z,98914.00
2019-01-11T14:06:41.653Z,98909.00
2019-01-11T14:09:11.145Z,98924.00
2019-01-11T14:11:40.903Z,98915.00
2019-01-11T14:14:10.693Z,98917.00
2019-01-11T14:16:40.513Z,98915.00
2019-01-11T14:19:10.125Z,98910.00
2019-01-11T14:21:40.122Z,98904.00
2019-01-11T14:24:10.467Z,98907.00
2019-01-11T14:26:40.147Z,98915.00
2019-01-11T14:29:09.847Z,98921.00
2019-01-11T14:31:39.470Z,98901.00
2019-01-11T14:34:09.682Z,98908.00
2019-01-11T14:36:39.463Z,98912.00
2019-01-11T14:39:09.743Z,98903.00
2019-01-11T14:41:39.830Z,98896.00
2019-01-11T14:44:09.576Z,98902.00
2019-01-11T14:46:39.041Z,98898.00
2019-01-11T14:49:08.643Z,98897.00
2019-01-11T14:51:38.244Z,98899.00
2019-01-11T14:54:07.968Z,98901.00
2019-01-11T14:56:37.617Z,98897.00
2019-01-11T14:59:07.229Z,98888.00
2019-01-11T15:01:36.733Z,98901.00
2019-01-11T15:04:06.640Z,98899.00
2019-01-11T15:06:36.588Z,98891.00
2019-01-11T15:09:08.625Z,98885.00
2019-01-11T15:11:38.601Z,98885.00
2019-01-11T15:14:08.952Z,98895.00
2019-01-11T15:16:39.117Z,98885.00
2019-01-11T15:19:13.985Z,98887.00
2019-01-11T15:21:40.857Z,98882.00
2019-01-11T15:24:10.779Z,98876.00
2019-01-11T15:26:40.603Z,98875.00
2019-01-11T15:29:18.063Z,98878.00
2019-01-11T15:31:48.353Z,98864.00
2019-01-11T15:34:18.110Z,98877.00
2019-01-11T15:36:47.827Z,98872.00
2019-01-11T15:39:17.567Z,98871.00
2019-01-11T15:41:47.392Z,98871.00
2019-01-11T15:44:17.991Z,98870.00
2019-01-11T15:46:47.857Z,98882.00
2019-01-11T15:49:17.714Z,98874.00
2019-01-11T15:51:47.499Z,98873.00
2019-01-11T15:54:17.830Z,98873.00
2019-01-11T15:57:09.426Z,98869.00
2019-01-11T16:00:03.178Z,98875.00
2019-01-11T16:02:33.509Z,98869.00
2019-01-11T16:05:03.319Z,98865.00
2019-01-11T16:07:33.744Z,98874.00
2019-01-11T16:10:09.292Z,98868.00
2019-01-11T16:13:29.577Z,98859.00
2019-01-11T16:16:23.750Z,98862.00
2019-01-11T16:18:54.751Z,98859.00
2019-01-11T16:21:24.499Z,98858.00
2019-01-11T16:23:54.127Z,98847.00
2019-01-11T16:26:23.769Z,98852.00
2019-01-11T16:28:55.245Z,98850.00
2019-01-11T16:31:24.774Z,98856.00
2019-01-11T16:33:54.587Z,98853.00
2019-01-11T16:36:24.267Z,98850.00
2019-01-11T16:38:54.221Z,98855.00
2019-01-11T16:41:24.339Z,98857.00
2019-01-11T16:43:53.980Z,98850.00
2019-01-11T16:46:23.759Z,98852.00
2019-01-11T16:48:53.376Z,98848.00
2019-01-11T16:51:24.006Z,98853.00
2019-01-11T16:53:54.741Z,98842.00
2019-01-11T16:56:24.470Z,98841.00
2019-01-11T16:58:53.998Z,98855.00
2019-01-11T17:01:23.800Z,98855.00
2019-01-11T17:03:53.585Z,98851.00
2019-01-11T17:06:25.513Z,98850.00
2019-01-11T17:08:55.183Z,98849.00
2019-01-11T17:11:26.330Z,98843.00
2019-01-11T17:13:57.454Z,98846.00
2019-01-11T17:16:28.361Z,98843.00
2019-01-11T17:19:02.148Z,98833.00
2019-01-11T17:21:31.692Z,98840.00
2019-01-11T17:24:01.513Z,98835.00
2019-01-11T17:26:33.406Z,98826.00
2019-01-11T17:29:03.257Z,98838.00
2019-01-11T17:31:34.198Z,98839.00
2019-01-11T17:34:10.064Z,98838.00
2019-01-11T17:36:39.711Z,98832.00
2019-01-11T17:39:10.461Z,98833.00
2019-01-11T17:41:40.219Z,98842.00
2019-01-11T17:44:10.047Z,98851.00
2019-01-11T17:46:39.796Z,98843.00
2019-01-11T17:49:09.656Z,98842.00
2019-01-11T17:51:41.868Z,98833.00
2019-01-11T17:54:11.724Z,98832.00
2019-01-11T17:56:41.741Z,98833.00
2019-01-11T17:59:11.386Z,98840.00
2019-01-11T18:01:41.338Z,98841.00
2019-01-11T18:04:10.911Z,98843.00
2019-01-11T18:06:40.744Z,98835.00
2019-01-11T18:09:10.528Z,98824.00
2019-01-11T18:11:43.652Z,98821.00
2019-01-11T18:14:13.637Z,98817.00
2019-01-11T18:16:43.141Z,98813.00
2019-01-11T18:19:13.888Z,98820.00
2019-01-11T18:21:43.637Z,98825.00
2019-01-11T18:24:13.410Z,98825.00
2019-01-11T18:26:43.031Z,98827.00
2019-01-11T18:29:12.723Z,98833.00
2019-01-11T18:31:42.563Z,98826.00
2019-01-11T18:34:12.553Z,98831.00
2019-01-11T18:36:42.164Z,98823.00
2019-01-11T18:39:11.822Z,98824.00
2019-01-11T18:41:41.502Z,98817.00
2019-01-11T18:44:11.054Z,98816.00
2019-01-11T18:46:40.820Z,98816.00
2019-01-11T18:49:12.144Z,98821.00
2019-01-11T18:51:41.721Z,98809.00
2019-01-11T18:54:11.478Z,98822.00
2019-01-11T18:56:41.398Z,98817.00
2019-01-11T18:59:11.133Z,98823.00
2019-01-11T19:01:41.201Z,98828.00
2019-01-11T19:04:11.235Z,98830.00
2019-01-11T19:06:41.146Z,98827.00
2019-01-11T19:09:11.397Z,98841.00
2019-01-11T19:11:41.454Z,98837.00
2019-01-11T19:14:11.501Z,98843.00
2019-01-11T19:16:41.118Z,98836.00
2019-01-11T19:19:10.857Z,98834.00
2019-01-11T19:21:40.725Z,98843.00
2019-01-11T19:24:10.243Z,98838.00
2019-01-11T19:26:40.162Z,98829.00
2019-01-11T19:29:11.031Z,98827.00
2019-01-11T19:31:40.714Z,98832.00
2019-01-11T19:34:10.390Z,98827.00
2019-01-11T19:36:41.230Z,98818.00
2019-01-11T19:39:10.998Z,98817.00
2019-01-11T19:41:40.539Z,98823.00
2019-01-11T19:44:10.254Z,98826.00
2019-01-11T19:46:40.657Z,98821.00
2019-01-11T19:49:10.302Z,98811.00
2019-01-11T19:51:41.008Z,98820.00
2019-01-11T19:54:10.803Z,98812.00
2019-01-11T19:56:40.436Z,98822.00
2019-01-11T19:59:10.000Z,98815.00
2019-01-11T20:01:39.685Z,98802.00
2019-01-11T20:04:09.358Z,98786.00
2019-01-11T20:06:39.104Z,98820.00
2019-01-11T20:09:09.476Z,98824.00
2019-01-11T20:11:39.169Z,98817.00
2019-01-11T20:14:09.092Z,98815.00
2019-01-11T20:16:39.167Z,98812.00
2019-01-11T20:19:09.524Z,98799.00
2019-01-11T20:21:39.587Z,98807.00
2019-01-11T20:24:09.246Z,98801.00
2019-01-11T20:26:39.977Z,98812.00
2019-01-11T20:29:11.893Z,98804.00
2019-01-11T20:31:41.779Z,98811.00
2019-01-11T20:34:11.718Z,98815.00
2019-01-11T20:36:46.609Z,98809.00
2019-01-11T20:39:16.522Z,98804.00
2019-01-11T20:41:46.458Z,98808.00
2019-01-11T20:44:16.208Z,98809.00
2019-01-11T20:46:46.255Z,98804.00
2019-01-11T20:49:16.100Z,98810.00
2019-01-11T20:51:45.683Z,98809.00
2019-01-11T20:54:15.735Z,98817.00
2019-01-11T20:56:45.402Z,98818.00
2019-01-11T20:59:16.883Z,98803.00
2019-01-11T21:01:46.595Z,98799.00
2019-01-11T21:04:16.646Z,98801.00
2019-01-11T21:06:49.766Z,98809.00
2019-01-11T21:09:21.076Z,98823.00
2019-01-11T21:11:53.337Z,98812.00
2019-01-11T21:14:24.299Z,98817.00
2019-01-11T21:16:54.171Z,98811.00
2019-01-11T21:19:25.270Z,98807.00
2019-01-11T21:21:56.936Z,98817.00
2019-01-11T21:24:26.602Z,98818.00
2019-01-11T21:26:56.306Z,98817.00
2019-01-11T21:29:25.989Z,98815.00
2019-01-11T21:31:58.212Z,98813.00
2019-01-11T21:34:29.222Z,98815.00
2019-01-11T21:36:59.579Z,98819.00
2019-01-11T21:39:36.762Z,98813.00
2019-01-11T21:42:06.400Z,98820.00
2019-01-11T21:44:36.319Z,98811.00
2019-01-11T21:47:06.081Z,98825.00
2019-01-11T21:49:35.674Z,98816.00
2019-01-11T21:52:05.277Z,98826.00
2019-01-11T21:54:36.253Z,98820.00
2019-01-11T21:57:06.141Z,98814.00
2019-01-11T21:59:35.921Z,98817.00
2019-01-11T22:02:07.569Z,98830.00
2019-01-11T22:04:37.742Z,98826.00
2019-01-11T22:07:08.303Z,98827.00
2019-01-11T22:09:39.788Z,98830.00
2019-01-11T22:12:10.430Z,98835.00
2019-01-11T22:14:48.281Z,98821.00
2019-01-11T22:17:19.489Z,98833.00
2019-01-11T22:19:49.431Z,98834.00
2019-01-11T22:22:23.508Z,98833.00
2019-01-11T22:24:53.040Z,98829.00
2019-01-11T22:27:22.940Z,98835.00
2019-01-11T22:29:52.767Z,98839.00
2019-01-11T22:32:23.536Z,98834.00
2019-01-11T22:34:53.383Z,98836.00
2019-01-11T22:37:23.852Z,98845.00
2019-01-11T22:39:55.396Z,98837.00
2019-01-11T22:42:25.420Z,98831.00
2019-01-11T22:44:56.102Z,98826.00
2019-01-11T22:47:26.540Z,98827.00
2019-01-11T22:49:56.779Z,98828.00
2019-01-11T22:52:28.424Z,98815.00
2019-01-11T22:54:58.687Z,98818.00
2019-01-11T22:57:30.488Z,98816.00
2019-01-11T23:00:00.474Z,98812.00
2019-01-11T23:02:44.998Z,98816.00
2019-01-11T23:05:15.219Z,98816.00
2019-01-11T23:07:52.255Z,98823.00
2019-01-11T23:10:50.003Z,98821.00
2019-01-11T23:13:19.687Z,98813.00
2019-01-11T23:15:58.599Z,98829.00
2019-01-11T23:18:29.695Z,98814.00
2019-01-11T23:21:02.457Z,98826.00
2019-01-11T23:23:31.979Z,98821.00
2019-01-11T23:26:01.550Z,98814.00
2019-01-11T23:28:31.075Z,98830.00
2019-01-11T23:31:00.727Z,98821.00
2019-01-11T23:33:30.376Z,98820.00
2019-01-11T23:35:59.879Z,98841.00
2019-01-11T23:38:29.586Z,98845.00
2019-01-11T23:40:59.394Z,98843.00
2019-01-11T23:43:29.124Z,98830.00
2019-01-11T23:45:58.728Z,98831.00
2019-01-11T23:48:28.333Z,98846.00
2019-01-11T23:50:57.927Z,98835.00
2019-01-11T23:53:27.651Z,98850.00
2019-01-11T23:55:57.259Z,98844.00
2019-01-11T23:58:26.889Z,98853.00
